This is the latest recevied weather packets stored in our database for station/object VK3BYD-3. If no packets are shown the sender has not sent any weather packets the latest 10 day(s).
| Time | Temp. | Humidity | Pressure | Rain* | Wind** | Luminosity | Snow |
|---|---|---|---|---|---|---|---|
| 1777879898 | 15.56° C | 74% | 1013.5 hPa | 0 mm | - | - | - |
| 1777878998 | 16.11° C | 73% | 1013.3 hPa | 0 mm | - | - | - |
| 1777878098 | 16.67° C | 72% | 1013.2 hPa | 0 mm | - | - | - |
| 1777877198 | 17.22° C | 72% | 1013.2 hPa | 0 mm | - | - | - |
| 1777876298 | 17.22° C | 71% | 1013.2 hPa | 0 mm | - | - | - |
| 1777875398 | 17.78° C | 71% | 1013.2 hPa | 0 mm | - | - | - |
| 1777874498 | 17.22° C | 70% | 1013.3 hPa | 0 mm | - | - | - |
| 1777873598 | 17.78° C | 68% | 1013.3 hPa | 0 mm | - | - | - |
| 1777872698 | 17.78° C | 70% | 1013.2 hPa | 0 mm | - | - | - |
| 1777871798 | 17.78° C | 69% | 1013.1 hPa | 0 mm | - | - | - |
| 1777870898 | 17.78° C | 70% | 1013.1 hPa | 0 mm | - | - | - |
| 1777869997 | 18.33° C | 67% | 1013.1 hPa | 0 mm | - | - | - |
| 1777869098 | 19.44° C | 63% | 1013 hPa | 0 mm | - | - | - |
| 1777868198 | 19.44° C | 66% | 1013 hPa | 0 mm | - | - | - |
| 1777867298 | 17.78° C | 72% | 1013.2 hPa | 0 mm | - | - | - |
| 1777866397 | 18.33° C | 67% | 1013.3 hPa | 0 mm | - | - | - |
| 1777865498 | 17.78° C | 71% | 1013.4 hPa | 0 mm | - | - | - |
| 1777864597 | 17.78° C | 70% | 1013.6 hPa | 0 mm | - | - | - |
| 1777863698 | 18.33° C | 70% | 1013.8 hPa | 0 mm | - | - | - |
| 1777862797 | 18.89° C | 68% | 1013.9 hPa | 0 mm | - | - | - |
| 1777861898 | 18.89° C | 70% | 1014.1 hPa | 0 mm | - | - | - |
| 1777860997 | 18.33° C | 71% | 1014.3 hPa | 0 mm | - | - | - |
| 1777860098 | 18.33° C | 70% | 1014.5 hPa | 0 mm | - | - | - |
| 1777859194 | 17.78° C | 74% | 1014.6 hPa | 0 mm | - | - | - |
| 1777858294 | 17.22° C | 77% | 1014.9 hPa | 0 mm | - | - | - |
* Rain latest hour (hover to see other rain measurements)
** Current wind speed in m/s (hover to see current wind gust speed)